sensor_id;sensor_type;location;lat;lon;timestamp;temperature;humidity
13091;DHT22;6611;52.604;13.438;2022-10-30T00:04:10;13.81;90.60
13091;DHT22;6611;52.604;13.438;2022-10-30T00:09:14;13.77;90.49
13091;DHT22;6611;52.604;13.438;2022-10-30T00:14:15;13.78;90.77
13091;DHT22;6611;52.604;13.438;2022-10-30T00:19:17;13.76;90.69
13091;DHT22;6611;52.604;13.438;2022-10-30T00:24:20;13.78;90.40
13091;DHT22;6611;52.604;13.438;2022-10-30T00:29:21;13.74;90.49
13091;DHT22;6611;52.604;13.438;2022-10-30T00:34:25;13.66;90.64
13091;DHT22;6611;52.604;13.438;2022-10-30T00:39:28;13.66;90.73
13091;DHT22;6611;52.604;13.438;2022-10-30T00:44:31;13.71;90.38
13091;DHT22;6611;52.604;13.438;2022-10-30T00:49:38;13.69;90.22
13091;DHT22;6611;52.604;13.438;2022-10-30T00:54:44;13.67;90.34
13091;DHT22;6611;52.604;13.438;2022-10-30T00:59:46;13.53;90.64
13091;DHT22;6611;52.604;13.438;2022-10-30T01:04:49;13.46;90.32
13091;DHT22;6611;52.604;13.438;2022-10-30T01:09:52;13.34;90.64
13091;DHT22;6611;52.604;13.438;2022-10-30T01:14:57;13.32;90.68
13091;DHT22;6611;52.604;13.438;2022-10-30T01:20:12;13.36;90.39
13091;DHT22;6611;52.604;13.438;2022-10-30T01:25:33;13.39;90.13
13091;DHT22;6611;52.604;13.438;2022-10-30T01:30:47;13.29;90.37
13091;DHT22;6611;52.604;13.438;2022-10-30T01:36:00;13.18;90.42
13091;DHT22;6611;52.604;13.438;2022-10-30T01:41:06;13.14;90.75
13091;DHT22;6611;52.604;13.438;2022-10-30T01:46:21;13.10;90.50
13091;DHT22;6611;52.604;13.438;2022-10-30T01:51:43;13.05;90.25
13091;DHT22;6611;52.604;13.438;2022-10-30T01:56:57;12.98;90.18
13091;DHT22;6611;52.604;13.438;2022-10-30T02:02:01;12.88;90.18
13091;DHT22;6611;52.604;13.438;2022-10-30T02:07:03;12.79;90.31
13091;DHT22;6611;52.604;13.438;2022-10-30T02:12:07;12.76;90.47
13091;DHT22;6611;52.604;13.438;2022-10-30T02:17:09;12.72;90.37
13091;DHT22;6611;52.604;13.438;2022-10-30T02:22:14;12.57;90.40
13091;DHT22;6611;52.604;13.438;2022-10-30T02:27:17;12.57;90.25
13091;DHT22;6611;52.604;13.438;2022-10-30T02:32:18;12.50;90.33
13091;DHT22;6611;52.604;13.438;2022-10-30T02:37:21;12.48;90.01
13091;DHT22;6611;52.604;13.438;2022-10-30T02:42:23;12.35;90.28
13091;DHT22;6611;52.604;13.438;2022-10-30T02:47:25;12.32;90.38
13091;DHT22;6611;52.604;13.438;2022-10-30T02:52:28;12.29;90.44
13091;DHT22;6611;52.604;13.438;2022-10-30T02:57:29;12.24;90.52
13091;DHT22;6611;52.604;13.438;2022-10-30T03:02:31;12.18;90.45
13091;DHT22;6611;52.604;13.438;2022-10-30T03:07:34;12.18;90.04
13091;DHT22;6611;52.604;13.438;2022-10-30T03:12:35;12.18;89.74
13091;DHT22;6611;52.604;13.438;2022-10-30T03:17:37;12.27;89.50
13091;DHT22;6611;52.604;13.438;2022-10-30T03:22:39;12.20;89.81
13091;DHT22;6611;52.604;13.438;2022-10-30T03:27:41;12.11;90.18
13091;DHT22;6611;52.604;13.438;2022-10-30T03:32:42;12.11;90.60
13091;DHT22;6611;52.604;13.438;2022-10-30T03:37:46;12.14;90.63
13091;DHT22;6611;52.604;13.438;2022-10-30T03:42:47;12.18;90.96
13091;DHT22;6611;52.604;13.438;2022-10-30T03:47:49;12.29;91.15
13091;DHT22;6611;52.604;13.438;2022-10-30T03:52:53;12.45;91.02
13091;DHT22;6611;52.604;13.438;2022-10-30T03:57:55;12.45;91.33
13091;DHT22;6611;52.604;13.438;2022-10-30T04:02:56;12.46;91.12
13091;DHT22;6611;52.604;13.438;2022-10-30T04:08:01;12.48;91.37
13091;DHT22;6611;52.604;13.438;2022-10-30T04:13:04;12.56;91.96
13091;DHT22;6611;52.604;13.438;2022-10-30T04:18:06;12.67;91.35
13091;DHT22;6611;52.604;13.438;2022-10-30T04:23:13;12.73;91.18
13091;DHT22;6611;52.604;13.438;2022-10-30T04:28:15;12.80;91.37
13091;DHT22;6611;52.604;13.438;2022-10-30T04:33:16;12.79;91.25
13091;DHT22;6611;52.604;13.438;2022-10-30T04:38:19;12.81;91.16
13091;DHT22;6611;52.604;13.438;2022-10-30T04:43:21;12.77;91.22
13091;DHT22;6611;52.604;13.438;2022-10-30T04:48:23;12.83;91.08
13091;DHT22;6611;52.604;13.438;2022-10-30T04:53:25;12.73;90.94
13091;DHT22;6611;52.604;13.438;2022-10-30T04:58:27;12.70;91.02
13091;DHT22;6611;52.604;13.438;2022-10-30T05:03:28;12.77;90.87
13091;DHT22;6611;52.604;13.438;2022-10-30T05:08:32;12.67;91.27
13091;DHT22;6611;52.604;13.438;2022-10-30T05:13:33;12.72;91.21
13091;DHT22;6611;52.604;13.438;2022-10-30T05:18:35;12.80;91.08
13091;DHT22;6611;52.604;13.438;2022-10-30T05:23:38;12.79;91.15
13091;DHT22;6611;52.604;13.438;2022-10-30T05:28:39;12.81;92.01
13091;DHT22;6611;52.604;13.438;2022-10-30T05:33:41;12.80;91.98
13091;DHT22;6611;52.604;13.438;2022-10-30T05:38:44;12.80;91.91
13091;DHT22;6611;52.604;13.438;2022-10-30T05:43:46;12.84;91.86
13091;DHT22;6611;52.604;13.438;2022-10-30T05:48:48;12.81;91.86
13091;DHT22;6611;52.604;13.438;2022-10-30T05:53:51;12.86;91.70
13091;DHT22;6611;52.604;13.438;2022-10-30T05:58:52;12.97;91.87
13091;DHT22;6611;52.604;13.438;2022-10-30T06:03:54;12.98;91.58
13091;DHT22;6611;52.604;13.438;2022-10-30T06:08:57;12.96;92.28
13091;DHT22;6611;52.604;13.438;2022-10-30T06:13:59;12.98;92.05
13091;DHT22;6611;52.604;13.438;2022-10-30T06:19:00;12.86;92.37
13091;DHT22;6611;52.604;13.438;2022-10-30T06:24:04;12.84;92.72
13091;DHT22;6611;52.604;13.438;2022-10-30T06:29:05;13.01;92.39
13091;DHT22;6611;52.604;13.438;2022-10-30T06:34:07;13.07;92.23
13091;DHT22;6611;52.604;13.438;2022-10-30T06:39:09;13.24;92.40
13091;DHT22;6611;52.604;13.438;2022-10-30T06:44:11;13.32;92.65
13091;DHT22;6611;52.604;13.438;2022-10-30T06:49:13;13.42;92.38
13091;DHT22;6611;52.604;13.438;2022-10-30T06:54:16;13.55;92.14
13091;DHT22;6611;52.604;13.438;2022-10-30T06:59:18;13.55;92.16
13091;DHT22;6611;52.604;13.438;2022-10-30T07:04:19;13.63;91.75
13091;DHT22;6611;52.604;13.438;2022-10-30T07:09:22;13.80;91.45
13091;DHT22;6611;52.604;13.438;2022-10-30T07:14:24;13.83;91.15
13091;DHT22;6611;52.604;13.438;2022-10-30T07:19:25;13.95;91.18
13091;DHT22;6611;52.604;13.438;2022-10-30T07:24:28;14.01;91.10
13091;DHT22;6611;52.604;13.438;2022-10-30T07:29:30;14.17;90.82
13091;DHT22;6611;52.604;13.438;2022-10-30T07:34:31;14.33;90.32
13091;DHT22;6611;52.604;13.438;2022-10-30T07:39:34;14.56;90.16
13091;DHT22;6611;52.604;13.438;2022-10-30T07:44:36;14.73;89.86
13091;DHT22;6611;52.604;13.438;2022-10-30T07:49:37;14.92;89.34
13091;DHT22;6611;52.604;13.438;2022-10-30T07:54:40;15.04;89.12
13091;DHT22;6611;52.604;13.438;2022-10-30T07:59:42;15.16;88.37
13091;DHT22;6611;52.604;13.438;2022-10-30T08:04:43;15.28;88.15
13091;DHT22;6611;52.604;13.438;2022-10-30T08:09:46;15.49;86.98
13091;DHT22;6611;52.604;13.438;2022-10-30T08:14:48;15.63;87.05
13091;DHT22;6611;52.604;13.438;2022-10-30T08:19:50;15.90;86.41
13091;DHT22;6611;52.604;13.438;2022-10-30T08:24:53;16.01;86.30
13091;DHT22;6611;52.604;13.438;2022-10-30T08:29:54;16.01;86.38
13091;DHT22;6611;52.604;13.438;2022-10-30T08:34:56;16.18;86.40
13091;DHT22;6611;52.604;13.438;2022-10-30T08:39:59;16.25;86.42
13091;DHT22;6611;52.604;13.438;2022-10-30T08:45:01;16.36;86.16
13091;DHT22;6611;52.604;13.438;2022-10-30T08:50:03;16.71;83.82
13091;DHT22;6611;52.604;13.438;2022-10-30T08:55:07;17.05;82.52
13091;DHT22;6611;52.604;13.438;2022-10-30T09:00:12;17.19;80.03
13091;DHT22;6611;52.604;13.438;2022-10-30T09:05:13;17.04;80.90
13091;DHT22;6611;52.604;13.438;2022-10-30T09:10:16;17.08;79.65
13091;DHT22;6611;52.604;13.438;2022-10-30T09:15:18;17.45;78.14
13091;DHT22;6611;52.604;13.438;2022-10-30T09:20:20;17.66;77.34
13091;DHT22;6611;52.604;13.438;2022-10-30T09:25:22;17.98;76.15
13091;DHT22;6611;52.604;13.438;2022-10-30T09:30:24;18.16;74.63
13091;DHT22;6611;52.604;13.438;2022-10-30T09:35:26;18.33;73.72
13091;DHT22;6611;52.604;13.438;2022-10-30T09:40:42;18.39;75.16
13091;DHT22;6611;52.604;13.438;2022-10-30T09:46:14;18.46;72.99
13091;DHT22;6611;52.604;13.438;2022-10-30T09:51:37;18.54;71.81
13091;DHT22;6611;52.604;13.438;2022-10-30T09:56:48;18.49;73.05
13091;DHT22;6611;52.604;13.438;2022-10-30T10:01:54;18.51;72.65
13091;DHT22;6611;52.604;13.438;2022-10-30T10:07:03;18.51;72.45
13091;DHT22;6611;52.604;13.438;2022-10-30T10:12:10;18.61;72.25
13091;DHT22;6611;52.604;13.438;2022-10-30T10:17:18;18.74;71.00
13091;DHT22;6611;52.604;13.438;2022-10-30T10:22:25;18.94;71.76
13091;DHT22;6611;52.604;13.438;2022-10-30T10:27:42;18.91;71.48
13091;DHT22;6611;52.604;13.438;2022-10-30T10:32:56;19.11;70.10
13091;DHT22;6611;52.604;13.438;2022-10-30T10:38:06;19.20;70.28
13091;DHT22;6611;52.604;13.438;2022-10-30T10:43:21;19.39;69.53
13091;DHT22;6611;52.604;13.438;2022-10-30T10:48:41;19.93;67.48
13091;DHT22;6611;52.604;13.438;2022-10-30T10:53:48;20.50;65.16
13091;DHT22;6611;52.604;13.438;2022-10-30T10:58:55;20.17;66.65
13091;DHT22;6611;52.604;13.438;2022-10-30T11:04:02;20.15;67.14
13091;DHT22;6611;52.604;13.438;2022-10-30T11:09:13;20.68;65.17
13091;DHT22;6611;52.604;13.438;2022-10-30T11:14:19;20.25;65.43
13091;DHT22;6611;52.604;13.438;2022-10-30T11:19:21;19.93;66.47
13091;DHT22;6611;52.604;13.438;2022-10-30T11:24:29;19.77;66.43
13091;DHT22;6611;52.604;13.438;2022-10-30T11:29:32;19.84;66.71
13091;DHT22;6611;52.604;13.438;2022-10-30T11:34:34;19.74;67.29
13091;DHT22;6611;52.604;13.438;2022-10-30T11:39:36;19.82;67.56
13091;DHT22;6611;52.604;13.438;2022-10-30T11:44:41;19.91;66.72
13091;DHT22;6611;52.604;13.438;2022-10-30T11:49:45;19.98;65.71
13091;DHT22;6611;52.604;13.438;2022-10-30T11:54:51;19.96;65.72
13091;DHT22;6611;52.604;13.438;2022-10-30T11:59:55;20.06;65.72
13091;DHT22;6611;52.604;13.438;2022-10-30T12:05:01;20.16;64.55
13091;DHT22;6611;52.604;13.438;2022-10-30T12:10:03;20.22;64.70
13091;DHT22;6611;52.604;13.438;2022-10-30T12:15:17;20.22;65.28
13091;DHT22;6611;52.604;13.438;2022-10-30T12:20:20;20.27;64.77
13091;DHT22;6611;52.604;13.438;2022-10-30T12:25:23;20.39;64.31
13091;DHT22;6611;52.604;13.438;2022-10-30T12:30:27;20.50;63.06
13091;DHT22;6611;52.604;13.438;2022-10-30T12:35:38;20.60;63.50
13091;DHT22;6611;52.604;13.438;2022-10-30T12:40:45;20.57;64.45
13091;DHT22;6611;52.604;13.438;2022-10-30T12:45:53;20.67;63.14
13091;DHT22;6611;52.604;13.438;2022-10-30T12:51:10;20.74;64.73
13091;DHT22;6611;52.604;13.438;2022-10-30T12:56:17;20.89;63.47
13091;DHT22;6611;52.604;13.438;2022-10-30T13:01:24;20.94;62.61
13091;DHT22;6611;52.604;13.438;2022-10-30T13:06:30;20.94;62.69
13091;DHT22;6611;52.604;13.438;2022-10-30T13:11:38;21.07;62.65
13091;DHT22;6611;52.604;13.438;2022-10-30T13:16:43;21.19;61.90
13091;DHT22;6611;52.604;13.438;2022-10-30T13:21:51;21.27;61.50
13091;DHT22;6611;52.604;13.438;2022-10-30T13:26:56;21.20;61.46
13091;DHT22;6611;52.604;13.438;2022-10-30T13:32:23;21.24;61.87
13091;DHT22;6611;52.604;13.438;2022-10-30T13:37:31;21.19;61.75
13091;DHT22;6611;52.604;13.438;2022-10-30T13:42:45;20.96;62.86
13091;DHT22;6611;52.604;13.438;2022-10-30T13:47:58;20.98;62.45
13091;DHT22;6611;52.604;13.438;2022-10-30T13:53:14;20.88;63.92
13091;DHT22;6611;52.604;13.438;2022-10-30T13:58:22;20.71;63.29
13091;DHT22;6611;52.604;13.438;2022-10-30T14:03:36;20.77;63.56
13091;DHT22;6611;52.604;13.438;2022-10-30T14:08:43;20.70;63.51
13091;DHT22;6611;52.604;13.438;2022-10-30T14:13:52;20.60;64.94
13091;DHT22;6611;52.604;13.438;2022-10-30T14:19:03;20.37;66.14
13091;DHT22;6611;52.604;13.438;2022-10-30T14:24:11;20.22;66.17
13091;DHT22;6611;52.604;13.438;2022-10-30T14:34:57;19.96;67.25
13091;DHT22;6611;52.604;13.438;2022-10-30T14:40:33;19.77;68.81
13091;DHT22;6611;52.604;13.438;2022-10-30T14:45:42;19.56;70.05
13091;DHT22;6611;52.604;13.438;2022-10-30T14:50:56;19.33;71.23
13091;DHT22;6611;52.604;13.438;2022-10-30T14:56:06;19.12;72.20
13091;DHT22;6611;52.604;13.438;2022-10-30T15:01:26;18.87;72.97
13091;DHT22;6611;52.604;13.438;2022-10-30T15:06:36;18.65;73.98
13091;DHT22;6611;52.604;13.438;2022-10-30T15:11:59;18.42;75.21
13091;DHT22;6611;52.604;13.438;2022-10-30T15:17:02;18.16;76.06
13091;DHT22;6611;52.604;13.438;2022-10-30T15:22:11;18.01;76.80
13091;DHT22;6611;52.604;13.438;2022-10-30T15:27:19;17.81;77.18
13091;DHT22;6611;52.604;13.438;2022-10-30T15:32:22;17.59;77.82
13091;DHT22;6611;52.604;13.438;2022-10-30T15:37:26;17.29;78.96
13091;DHT22;6611;52.604;13.438;2022-10-30T15:42:27;17.08;79.50
13091;DHT22;6611;52.604;13.438;2022-10-30T15:47:29;16.83;80.24
13091;DHT22;6611;52.604;13.438;2022-10-30T15:52:33;16.66;80.53
13091;DHT22;6611;52.604;13.438;2022-10-30T15:57:37;16.49;80.89
13091;DHT22;6611;52.604;13.438;2022-10-30T16:02:46;16.30;81.53
13091;DHT22;6611;52.604;13.438;2022-10-30T16:07:50;16.15;81.74
13091;DHT22;6611;52.604;13.438;2022-10-30T16:12:51;16.04;82.06
13091;DHT22;6611;52.604;13.438;2022-10-30T16:18:03;15.87;82.53
13091;DHT22;6611;52.604;13.438;2022-10-30T16:23:07;15.71;82.82
13091;DHT22;6611;52.604;13.438;2022-10-30T16:28:23;15.54;83.24
13091;DHT22;6611;52.604;13.438;2022-10-30T16:33:26;15.35;83.83
13091;DHT22;6611;52.604;13.438;2022-10-30T16:38:32;15.24;84.26
13091;DHT22;6611;52.604;13.438;2022-10-30T16:43:36;15.11;84.48
13091;DHT22;6611;52.604;13.438;2022-10-30T16:48:41;14.97;84.98
13091;DHT22;6611;52.604;13.438;2022-10-30T16:53:46;14.88;85.29
13091;DHT22;6611;52.604;13.438;2022-10-30T16:58:48;14.79;85.44
13091;DHT22;6611;52.604;13.438;2022-10-30T17:03:50;14.74;85.53
13091;DHT22;6611;52.604;13.438;2022-10-30T17:08:56;14.69;85.54
13091;DHT22;6611;52.604;13.438;2022-10-30T17:14:00;14.52;85.97
13091;DHT22;6611;52.604;13.438;2022-10-30T17:19:37;14.43;85.95
13091;DHT22;6611;52.604;13.438;2022-10-30T17:24:41;14.30;86.12
13091;DHT22;6611;52.604;13.438;2022-10-30T17:29:43;14.32;85.69
13091;DHT22;6611;52.604;13.438;2022-10-30T17:34:45;14.25;85.71
13091;DHT22;6611;52.604;13.438;2022-10-30T17:39:48;14.17;86.18
13091;DHT22;6611;52.604;13.438;2022-10-30T17:44:49;14.01;86.62
13091;DHT22;6611;52.604;13.438;2022-10-30T17:49:51;13.90;87.03
13091;DHT22;6611;52.604;13.438;2022-10-30T17:54:54;13.84;86.96
13091;DHT22;6611;52.604;13.438;2022-10-30T17:59:55;13.77;86.96
13091;DHT22;6611;52.604;13.438;2022-10-30T18:04:57;13.74;86.91
13091;DHT22;6611;52.604;13.438;2022-10-30T18:10:00;13.66;87.00
13091;DHT22;6611;52.604;13.438;2022-10-30T18:15:14;13.58;87.19
13091;DHT22;6611;52.604;13.438;2022-10-30T18:20:16;13.52;86.83
13091;DHT22;6611;52.604;13.438;2022-10-30T18:25:22;13.46;86.80
13091;DHT22;6611;52.604;13.438;2022-10-30T18:30:24;13.42;86.78
13091;DHT22;6611;52.604;13.438;2022-10-30T18:35:29;13.34;87.55
13091;DHT22;6611;52.604;13.438;2022-10-30T18:40:32;13.29;87.16
13091;DHT22;6611;52.604;13.438;2022-10-30T18:45:35;13.19;87.09
13091;DHT22;6611;52.604;13.438;2022-10-30T18:50:37;13.11;87.49
13091;DHT22;6611;52.604;13.438;2022-10-30T18:55:40;12.98;87.59
13091;DHT22;6611;52.604;13.438;2022-10-30T19:00:43;12.98;87.78
13091;DHT22;6611;52.604;13.438;2022-10-30T19:05:46;12.96;88.01
13091;DHT22;6611;52.604;13.438;2022-10-30T19:10:49;12.88;87.92
13091;DHT22;6611;52.604;13.438;2022-10-30T19:15:55;12.76;87.76
13091;DHT22;6611;52.604;13.438;2022-10-30T19:20:59;12.73;87.56
13091;DHT22;6611;52.604;13.438;2022-10-30T19:26:02;12.66;87.64
13091;DHT22;6611;52.604;13.438;2022-10-30T19:31:04;12.63;87.61
13091;DHT22;6611;52.604;13.438;2022-10-30T19:36:22;12.55;87.86
13091;DHT22;6611;52.604;13.438;2022-10-30T19:41:25;12.57;87.84
13091;DHT22;6611;52.604;13.438;2022-10-30T19:46:27;12.50;87.65
13091;DHT22;6611;52.604;13.438;2022-10-30T19:51:28;12.42;87.44
13091;DHT22;6611;52.604;13.438;2022-10-30T19:56:31;12.36;87.22
13091;DHT22;6611;52.604;13.438;2022-10-30T20:01:33;12.29;87.87
13091;DHT22;6611;52.604;13.438;2022-10-30T20:06:34;12.28;87.81
13091;DHT22;6611;52.604;13.438;2022-10-30T20:11:37;12.27;87.22
13091;DHT22;6611;52.604;13.438;2022-10-30T20:16:39;12.20;87.25
13091;DHT22;6611;52.604;13.438;2022-10-30T20:21:40;12.14;87.74
13091;DHT22;6611;52.604;13.438;2022-10-30T20:26:43;12.20;87.21
13091;DHT22;6611;52.604;13.438;2022-10-30T20:31:45;11.91;87.34
13091;DHT22;6611;52.604;13.438;2022-10-30T20:36:47;11.95;87.24
13091;DHT22;6611;52.604;13.438;2022-10-30T20:41:50;11.90;87.34
13091;DHT22;6611;52.604;13.438;2022-10-30T20:46:51;11.82;87.81
13091;DHT22;6611;52.604;13.438;2022-10-30T20:51:53;11.77;87.65
13091;DHT22;6611;52.604;13.438;2022-10-30T20:56:56;11.70;87.80
13091;DHT22;6611;52.604;13.438;2022-10-30T21:01:57;11.67;87.94
13091;DHT22;6611;52.604;13.438;2022-10-30T21:06:59;11.61;88.03
13091;DHT22;6611;52.604;13.438;2022-10-30T21:12:02;11.56;88.15
13091;DHT22;6611;52.604;13.438;2022-10-30T21:17:04;11.51;88.04
13091;DHT22;6611;52.604;13.438;2022-10-30T21:22:05;11.51;87.93
13091;DHT22;6611;52.604;13.438;2022-10-30T21:27:08;11.46;88.01
13091;DHT22;6611;52.604;13.438;2022-10-30T21:32:10;11.52;87.48
13091;DHT22;6611;52.604;13.438;2022-10-30T21:37:11;11.42;87.77
13091;DHT22;6611;52.604;13.438;2022-10-30T21:42:15;11.31;87.74
13091;DHT22;6611;52.604;13.438;2022-10-30T21:47:16;11.20;87.75
13091;DHT22;6611;52.604;13.438;2022-10-30T21:52:18;11.18;87.18
13091;DHT22;6611;52.604;13.438;2022-10-30T21:57:21;11.24;87.10
13091;DHT22;6611;52.604;13.438;2022-10-30T22:02:22;11.14;87.03
13091;DHT22;6611;52.604;13.438;2022-10-30T22:07:24;11.04;87.24
13091;DHT22;6611;52.604;13.438;2022-10-30T22:12:27;10.97;87.85
13091;DHT22;6611;52.604;13.438;2022-10-30T22:17:28;11.00;87.75
13091;DHT22;6611;52.604;13.438;2022-10-30T22:22:30;11.00;87.99
13091;DHT22;6611;52.604;13.438;2022-10-30T22:27:33;10.94;88.42
13091;DHT22;6611;52.604;13.438;2022-10-30T22:32:35;10.89;88.25
13091;DHT22;6611;52.604;13.438;2022-10-30T22:37:36;10.90;87.71
13091;DHT22;6611;52.604;13.438;2022-10-30T22:42:39;10.86;87.46
13091;DHT22;6611;52.604;13.438;2022-10-30T22:47:41;10.93;87.28
13091;DHT22;6611;52.604;13.438;2022-10-30T22:52:42;10.89;87.12
13091;DHT22;6611;52.604;13.438;2022-10-30T22:57:45;10.79;87.77
13091;DHT22;6611;52.604;13.438;2022-10-30T23:02:46;10.70;87.68
13091;DHT22;6611;52.604;13.438;2022-10-30T23:07:49;10.65;88.34
13091;DHT22;6611;52.604;13.438;2022-10-30T23:12:53;10.69;87.64
13091;DHT22;6611;52.604;13.438;2022-10-30T23:17:55;10.60;87.94
13091;DHT22;6611;52.604;13.438;2022-10-30T23:22:57;10.53;87.93
13091;DHT22;6611;52.604;13.438;2022-10-30T23:28:00;10.46;87.82
13091;DHT22;6611;52.604;13.438;2022-10-30T23:33:01;10.45;88.10
13091;DHT22;6611;52.604;13.438;2022-10-30T23:38:03;10.51;87.59
13091;DHT22;6611;52.604;13.438;2022-10-30T23:43:06;10.44;87.93
13091;DHT22;6611;52.604;13.438;2022-10-30T23:48:07;10.35;87.57
13091;DHT22;6611;52.604;13.438;2022-10-30T23:53:09;10.28;87.40
13091;DHT22;6611;52.604;13.438;2022-10-30T23:58:12;10.30;87.08
